sensor_id;sensor_type;location;lat;lon;timestamp;temperature;humidity
33827;DHT22;20128;45.582;5.298;2023-04-16T00:00:09;11.20;87.90
33827;DHT22;20128;45.582;5.298;2023-04-16T00:02:36;11.20;87.30
33827;DHT22;20128;45.582;5.298;2023-04-16T00:05:02;11.20;87.50
33827;DHT22;20128;45.582;5.298;2023-04-16T00:07:28;11.20;87.30
33827;DHT22;20128;45.582;5.298;2023-04-16T00:09:54;11.10;87.10
33827;DHT22;20128;45.582;5.298;2023-04-16T00:12:20;11.10;87.10
33827;DHT22;20128;45.582;5.298;2023-04-16T00:14:45;11.10;87.40
33827;DHT22;20128;45.582;5.298;2023-04-16T00:17:11;11.20;87.50
33827;DHT22;20128;45.582;5.298;2023-04-16T00:19:37;11.20;87.50
33827;DHT22;20128;45.582;5.298;2023-04-16T00:22:03;11.30;87.40
33827;DHT22;20128;45.582;5.298;2023-04-16T00:24:28;11.30;87.50
33827;DHT22;20128;45.582;5.298;2023-04-16T00:26:54;11.30;87.50
33827;DHT22;20128;45.582;5.298;2023-04-16T00:29:20;11.40;87.80
33827;DHT22;20128;45.582;5.298;2023-04-16T00:31:46;11.50;87.40
33827;DHT22;20128;45.582;5.298;2023-04-16T00:34:12;11.60;87.00
33827;DHT22;20128;45.582;5.298;2023-04-16T00:36:37;11.60;86.60
33827;DHT22;20128;45.582;5.298;2023-04-16T00:39:03;11.60;86.40
33827;DHT22;20128;45.582;5.298;2023-04-16T00:41:29;11.60;86.60
33827;DHT22;20128;45.582;5.298;2023-04-16T00:43:54;11.60;86.10
33827;DHT22;20128;45.582;5.298;2023-04-16T00:46:22;11.60;86.70
33827;DHT22;20128;45.582;5.298;2023-04-16T00:48:48;11.70;87.00
33827;DHT22;20128;45.582;5.298;2023-04-16T00:51:16;11.80;86.90
33827;DHT22;20128;45.582;5.298;2023-04-16T00:53:44;11.90;86.80
33827;DHT22;20128;45.582;5.298;2023-04-16T00:56:11;11.90;86.70
33827;DHT22;20128;45.582;5.298;2023-04-16T00:58:38;11.90;86.70
33827;DHT22;20128;45.582;5.298;2023-04-16T01:01:04;11.80;86.60
33827;DHT22;20128;45.582;5.298;2023-04-16T01:03:38;11.80;86.20
33827;DHT22;20128;45.582;5.298;2023-04-16T01:06:05;11.80;86.60
33827;DHT22;20128;45.582;5.298;2023-04-16T01:08:31;11.80;86.60
33827;DHT22;20128;45.582;5.298;2023-04-16T01:10:57;11.90;86.40
33827;DHT22;20128;45.582;5.298;2023-04-16T01:13:23;11.90;86.10
33827;DHT22;20128;45.582;5.298;2023-04-16T01:15:49;11.90;86.30
33827;DHT22;20128;45.582;5.298;2023-04-16T01:18:19;12.00;86.10
33827;DHT22;20128;45.582;5.298;2023-04-16T01:20:46;12.00;85.90
33827;DHT22;20128;45.582;5.298;2023-04-16T01:23:12;11.90;86.30
33827;DHT22;20128;45.582;5.298;2023-04-16T01:25:38;11.90;85.50
33827;DHT22;20128;45.582;5.298;2023-04-16T01:28:04;11.90;85.80
33827;DHT22;20128;45.582;5.298;2023-04-16T01:30:30;11.90;85.80
33827;DHT22;20128;45.582;5.298;2023-04-16T01:32:56;11.90;85.80
33827;DHT22;20128;45.582;5.298;2023-04-16T01:35:25;11.80;85.80
33827;DHT22;20128;45.582;5.298;2023-04-16T01:37:50;11.80;85.70
33827;DHT22;20128;45.582;5.298;2023-04-16T01:40:17;11.80;85.70
33827;DHT22;20128;45.582;5.298;2023-04-16T01:42:43;11.80;85.60
33827;DHT22;20128;45.582;5.298;2023-04-16T01:45:09;11.70;85.60
33827;DHT22;20128;45.582;5.298;2023-04-16T01:47:35;11.60;85.50
33827;DHT22;20128;45.582;5.298;2023-04-16T01:50:01;11.50;85.60
33827;DHT22;20128;45.582;5.298;2023-04-16T01:52:27;11.50;85.80
33827;DHT22;20128;45.582;5.298;2023-04-16T01:54:52;11.40;85.70
33827;DHT22;20128;45.582;5.298;2023-04-16T01:57:18;11.40;86.10
33827;DHT22;20128;45.582;5.298;2023-04-16T01:59:43;11.30;86.30
33827;DHT22;20128;45.582;5.298;2023-04-16T02:02:10;11.30;86.50
33827;DHT22;20128;45.582;5.298;2023-04-16T02:04:40;11.20;86.60
33827;DHT22;20128;45.582;5.298;2023-04-16T02:07:07;11.20;86.90
33827;DHT22;20128;45.582;5.298;2023-04-16T02:09:34;11.20;87.10
33827;DHT22;20128;45.582;5.298;2023-04-16T02:12:00;11.30;87.20
33827;DHT22;20128;45.582;5.298;2023-04-16T02:14:27;11.30;87.20
33827;DHT22;20128;45.582;5.298;2023-04-16T02:16:53;11.30;87.20
33827;DHT22;20128;45.582;5.298;2023-04-16T02:19:19;11.30;87.10
33827;DHT22;20128;45.582;5.298;2023-04-16T02:21:44;11.30;87.00
33827;DHT22;20128;45.582;5.298;2023-04-16T02:24:10;11.40;87.30
33827;DHT22;20128;45.582;5.298;2023-04-16T02:26:36;11.40;87.00
33827;DHT22;20128;45.582;5.298;2023-04-16T02:29:01;11.40;87.00
33827;DHT22;20128;45.582;5.298;2023-04-16T02:31:28;11.50;86.90
33827;DHT22;20128;45.582;5.298;2023-04-16T02:33:54;11.50;86.80
33827;DHT22;20128;45.582;5.298;2023-04-16T02:36:20;11.50;86.70
33827;DHT22;20128;45.582;5.298;2023-04-16T02:38:46;11.40;86.40
33827;DHT22;20128;45.582;5.298;2023-04-16T02:41:11;11.40;86.50
33827;DHT22;20128;45.582;5.298;2023-04-16T02:43:37;11.30;86.40
33827;DHT22;20128;45.582;5.298;2023-04-16T02:46:03;11.30;86.70
33827;DHT22;20128;45.582;5.298;2023-04-16T02:48:28;11.30;86.90
33827;DHT22;20128;45.582;5.298;2023-04-16T02:50:54;11.30;87.10
33827;DHT22;20128;45.582;5.298;2023-04-16T02:53:20;11.30;87.10
33827;DHT22;20128;45.582;5.298;2023-04-16T02:55:53;11.30;86.90
33827;DHT22;20128;45.582;5.298;2023-04-16T02:58:24;11.30;86.70
33827;DHT22;20128;45.582;5.298;2023-04-16T03:00:53;11.40;86.20
33827;DHT22;20128;45.582;5.298;2023-04-16T03:03:19;11.30;86.10
33827;DHT22;20128;45.582;5.298;2023-04-16T03:05:45;11.30;86.20
33827;DHT22;20128;45.582;5.298;2023-04-16T03:08:11;11.30;86.30
33827;DHT22;20128;45.582;5.298;2023-04-16T03:10:37;11.30;85.70
33827;DHT22;20128;45.582;5.298;2023-04-16T03:13:03;11.30;85.80
33827;DHT22;20128;45.582;5.298;2023-04-16T03:15:29;11.30;86.20
33827;DHT22;20128;45.582;5.298;2023-04-16T03:17:56;11.30;85.80
33827;DHT22;20128;45.582;5.298;2023-04-16T03:20:22;11.30;85.80
33827;DHT22;20128;45.582;5.298;2023-04-16T03:22:48;11.30;85.90
33827;DHT22;20128;45.582;5.298;2023-04-16T03:25:14;11.30;86.00
33827;DHT22;20128;45.582;5.298;2023-04-16T03:27:39;11.30;86.00
33827;DHT22;20128;45.582;5.298;2023-04-16T03:30:10;11.30;84.70
33827;DHT22;20128;45.582;5.298;2023-04-16T03:32:36;11.20;85.00
33827;DHT22;20128;45.582;5.298;2023-04-16T03:35:03;11.20;85.40
33827;DHT22;20128;45.582;5.298;2023-04-16T03:37:29;11.10;84.90
33827;DHT22;20128;45.582;5.298;2023-04-16T03:39:55;11.10;85.60
33827;DHT22;20128;45.582;5.298;2023-04-16T03:42:20;11.10;86.00
33827;DHT22;20128;45.582;5.298;2023-04-16T03:44:46;11.10;86.20
33827;DHT22;20128;45.582;5.298;2023-04-16T03:47:11;11.10;85.30
33827;DHT22;20128;45.582;5.298;2023-04-16T03:49:37;11.10;85.20
33827;DHT22;20128;45.582;5.298;2023-04-16T03:52:03;11.10;85.20
33827;DHT22;20128;45.582;5.298;2023-04-16T03:54:29;11.10;85.10
33827;DHT22;20128;45.582;5.298;2023-04-16T03:56:54;11.10;85.30
33827;DHT22;20128;45.582;5.298;2023-04-16T03:59:21;11.00;85.30
33827;DHT22;20128;45.582;5.298;2023-04-16T04:01:47;11.00;85.70
33827;DHT22;20128;45.582;5.298;2023-04-16T04:04:12;11.00;85.50
33827;DHT22;20128;45.582;5.298;2023-04-16T04:06:38;11.10;85.50
33827;DHT22;20128;45.582;5.298;2023-04-16T04:09:04;11.10;85.60
33827;DHT22;20128;45.582;5.298;2023-04-16T04:11:29;11.00;85.30
33827;DHT22;20128;45.582;5.298;2023-04-16T04:13:55;11.00;85.50
33827;DHT22;20128;45.582;5.298;2023-04-16T04:16:21;11.00;85.30
33827;DHT22;20128;45.582;5.298;2023-04-16T04:18:46;11.00;85.60
33827;DHT22;20128;45.582;5.298;2023-04-16T04:21:12;11.00;85.00
33827;DHT22;20128;45.582;5.298;2023-04-16T04:23:37;10.90;84.90
33827;DHT22;20128;45.582;5.298;2023-04-16T04:26:03;10.80;85.30
33827;DHT22;20128;45.582;5.298;2023-04-16T04:28:33;10.80;85.80
33827;DHT22;20128;45.582;5.298;2023-04-16T04:31:00;10.80;85.40
33827;DHT22;20128;45.582;5.298;2023-04-16T04:33:26;10.70;85.40
33827;DHT22;20128;45.582;5.298;2023-04-16T04:35:53;10.50;85.40
33827;DHT22;20128;45.582;5.298;2023-04-16T04:38:18;10.50;85.60
33827;DHT22;20128;45.582;5.298;2023-04-16T04:40:47;10.40;85.60
33827;DHT22;20128;45.582;5.298;2023-04-16T04:43:12;10.40;86.00
33827;DHT22;20128;45.582;5.298;2023-04-16T04:45:38;10.40;86.20
33827;DHT22;20128;45.582;5.298;2023-04-16T04:48:05;10.30;86.30
33827;DHT22;20128;45.582;5.298;2023-04-16T04:50:30;10.30;86.50
33827;DHT22;20128;45.582;5.298;2023-04-16T04:52:56;10.20;86.20
33827;DHT22;20128;45.582;5.298;2023-04-16T04:55:22;10.30;86.50
33827;DHT22;20128;45.582;5.298;2023-04-16T04:57:48;10.20;86.50
33827;DHT22;20128;45.582;5.298;2023-04-16T05:00:14;10.20;87.10
33827;DHT22;20128;45.582;5.298;2023-04-16T05:02:40;10.30;86.70
33827;DHT22;20128;45.582;5.298;2023-04-16T05:05:06;10.30;86.50
33827;DHT22;20128;45.582;5.298;2023-04-16T05:07:31;10.20;86.40
33827;DHT22;20128;45.582;5.298;2023-04-16T05:09:57;10.20;86.00
33827;DHT22;20128;45.582;5.298;2023-04-16T05:12:23;10.10;86.30
33827;DHT22;20128;45.582;5.298;2023-04-16T05:14:48;10.00;86.10
33827;DHT22;20128;45.582;5.298;2023-04-16T05:17:14;10.00;86.40
33827;DHT22;20128;45.582;5.298;2023-04-16T05:19:40;10.00;86.40
33827;DHT22;20128;45.582;5.298;2023-04-16T05:22:05;9.90;86.60
33827;DHT22;20128;45.582;5.298;2023-04-16T05:24:31;10.00;86.90
33827;DHT22;20128;45.582;5.298;2023-04-16T05:26:57;10.00;87.10
33827;DHT22;20128;45.582;5.298;2023-04-16T05:29:22;10.00;87.00
33827;DHT22;20128;45.582;5.298;2023-04-16T05:31:48;10.00;87.20
33827;DHT22;20128;45.582;5.298;2023-04-16T05:34:14;10.10;86.70
33827;DHT22;20128;45.582;5.298;2023-04-16T05:36:40;10.00;87.60
33827;DHT22;20128;45.582;5.298;2023-04-16T05:39:05;10.10;86.90
33827;DHT22;20128;45.582;5.298;2023-04-16T05:41:32;10.10;86.80
33827;DHT22;20128;45.582;5.298;2023-04-16T05:43:58;10.10;86.70
33827;DHT22;20128;45.582;5.298;2023-04-16T05:46:23;10.10;85.60
33827;DHT22;20128;45.582;5.298;2023-04-16T05:48:49;10.00;86.00
33827;DHT22;20128;45.582;5.298;2023-04-16T05:51:15;9.90;86.20
33827;DHT22;20128;45.582;5.298;2023-04-16T05:53:40;9.80;86.40
33827;DHT22;20128;45.582;5.298;2023-04-16T05:56:06;9.80;86.70
33827;DHT22;20128;45.582;5.298;2023-04-16T05:58:32;9.80;86.80
33827;DHT22;20128;45.582;5.298;2023-04-16T06:00:58;9.80;86.80
33827;DHT22;20128;45.582;5.298;2023-04-16T06:03:25;9.80;87.00
33827;DHT22;20128;45.582;5.298;2023-04-16T06:05:51;9.70;87.00
33827;DHT22;20128;45.582;5.298;2023-04-16T06:08:16;9.70;87.20
33827;DHT22;20128;45.582;5.298;2023-04-16T06:10:44;9.70;87.00
33827;DHT22;20128;45.582;5.298;2023-04-16T06:13:10;9.70;86.90
33827;DHT22;20128;45.582;5.298;2023-04-16T06:15:36;9.60;87.30
33827;DHT22;20128;45.582;5.298;2023-04-16T06:18:01;9.60;87.40
33827;DHT22;20128;45.582;5.298;2023-04-16T06:20:27;9.60;87.50
33827;DHT22;20128;45.582;5.298;2023-04-16T06:22:53;9.60;87.50
33827;DHT22;20128;45.582;5.298;2023-04-16T06:25:19;9.60;87.50
33827;DHT22;20128;45.582;5.298;2023-04-16T06:27:46;9.60;87.40
33827;DHT22;20128;45.582;5.298;2023-04-16T06:30:13;9.50;87.30
33827;DHT22;20128;45.582;5.298;2023-04-16T06:32:39;9.50;87.50
33827;DHT22;20128;45.582;5.298;2023-04-16T06:35:05;9.50;87.60
33827;DHT22;20128;45.582;5.298;2023-04-16T06:37:30;9.40;87.70
33827;DHT22;20128;45.582;5.298;2023-04-16T06:39:56;9.50;87.80
33827;DHT22;20128;45.582;5.298;2023-04-16T06:42:22;9.50;87.60
33827;DHT22;20128;45.582;5.298;2023-04-16T06:44:48;9.50;87.80
33827;DHT22;20128;45.582;5.298;2023-04-16T06:47:14;9.50;87.20
33827;DHT22;20128;45.582;5.298;2023-04-16T06:49:40;9.50;87.10
33827;DHT22;20128;45.582;5.298;2023-04-16T06:52:06;9.50;87.00
33827;DHT22;20128;45.582;5.298;2023-04-16T06:54:31;9.50;87.20
33827;DHT22;20128;45.582;5.298;2023-04-16T06:56:57;9.40;87.10
33827;DHT22;20128;45.582;5.298;2023-04-16T06:59:23;9.40;87.30
33827;DHT22;20128;45.582;5.298;2023-04-16T07:01:48;9.40;87.50
33827;DHT22;20128;45.582;5.298;2023-04-16T07:04:14;9.40;87.40
33827;DHT22;20128;45.582;5.298;2023-04-16T07:06:40;9.40;87.80
33827;DHT22;20128;45.582;5.298;2023-04-16T07:09:05;9.40;87.80
33827;DHT22;20128;45.582;5.298;2023-04-16T07:11:31;9.40;88.20
33827;DHT22;20128;45.582;5.298;2023-04-16T07:13:57;9.40;88.30
33827;DHT22;20128;45.582;5.298;2023-04-16T07:16:23;9.40;88.40
33827;DHT22;20128;45.582;5.298;2023-04-16T07:18:48;9.50;88.70
33827;DHT22;20128;45.582;5.298;2023-04-16T07:21:14;9.70;89.30
33827;DHT22;20128;45.582;5.298;2023-04-16T07:23:40;9.80;89.00
33827;DHT22;20128;45.582;5.298;2023-04-16T07:26:06;9.80;88.70
33827;DHT22;20128;45.582;5.298;2023-04-16T07:28:32;9.90;88.30
33827;DHT22;20128;45.582;5.298;2023-04-16T07:30:57;9.90;88.20
33827;DHT22;20128;45.582;5.298;2023-04-16T07:33:23;9.90;87.80
33827;DHT22;20128;45.582;5.298;2023-04-16T07:35:49;9.90;88.10
33827;DHT22;20128;45.582;5.298;2023-04-16T07:38:15;9.90;87.90
33827;DHT22;20128;45.582;5.298;2023-04-16T07:40:41;9.90;87.80
33827;DHT22;20128;45.582;5.298;2023-04-16T07:43:06;9.90;87.00
33827;DHT22;20128;45.582;5.298;2023-04-16T07:45:32;9.90;86.70
33827;DHT22;20128;45.582;5.298;2023-04-16T07:47:58;9.90;85.80
33827;DHT22;20128;45.582;5.298;2023-04-16T07:50:24;9.90;85.90
33827;DHT22;20128;45.582;5.298;2023-04-16T07:52:50;10.00;86.00
33827;DHT22;20128;45.582;5.298;2023-04-16T07:55:16;10.00;86.10
33827;DHT22;20128;45.582;5.298;2023-04-16T07:57:42;10.10;85.50
33827;DHT22;20128;45.582;5.298;2023-04-16T08:00:09;10.10;85.30
33827;DHT22;20128;45.582;5.298;2023-04-16T08:02:35;10.10;85.10
33827;DHT22;20128;45.582;5.298;2023-04-16T08:05:00;10.20;85.20
33827;DHT22;20128;45.582;5.298;2023-04-16T08:07:26;10.20;84.90
33827;DHT22;20128;45.582;5.298;2023-04-16T08:09:52;10.20;85.00
33827;DHT22;20128;45.582;5.298;2023-04-16T08:12:18;10.20;85.10
33827;DHT22;20128;45.582;5.298;2023-04-16T08:14:44;10.20;85.40
33827;DHT22;20128;45.582;5.298;2023-04-16T08:17:11;10.20;85.30
33827;DHT22;20128;45.582;5.298;2023-04-16T08:19:37;10.20;84.60
33827;DHT22;20128;45.582;5.298;2023-04-16T08:22:02;10.30;84.70
33827;DHT22;20128;45.582;5.298;2023-04-16T08:24:28;10.20;85.20
33827;DHT22;20128;45.582;5.298;2023-04-16T08:26:54;10.20;85.00
33827;DHT22;20128;45.582;5.298;2023-04-16T08:29:19;10.30;84.70
33827;DHT22;20128;45.582;5.298;2023-04-16T08:31:45;10.30;84.60
33827;DHT22;20128;45.582;5.298;2023-04-16T08:34:11;10.30;84.70
33827;DHT22;20128;45.582;5.298;2023-04-16T08:36:37;10.20;83.80
33827;DHT22;20128;45.582;5.298;2023-04-16T08:39:02;10.30;83.60
33827;DHT22;20128;45.582;5.298;2023-04-16T08:41:31;10.30;84.30
33827;DHT22;20128;45.582;5.298;2023-04-16T08:43:59;10.40;83.70
33827;DHT22;20128;45.582;5.298;2023-04-16T08:46:30;10.40;83.90
33827;DHT22;20128;45.582;5.298;2023-04-16T08:48:58;10.40;84.00
33827;DHT22;20128;45.582;5.298;2023-04-16T08:51:26;10.40;83.60
33827;DHT22;20128;45.582;5.298;2023-04-16T08:54:01;10.40;82.70
33827;DHT22;20128;45.582;5.298;2023-04-16T08:56:30;10.40;82.90
33827;DHT22;20128;45.582;5.298;2023-04-16T08:58:56;10.40;83.20
33827;DHT22;20128;45.582;5.298;2023-04-16T09:01:24;10.50;83.30
33827;DHT22;20128;45.582;5.298;2023-04-16T09:03:50;10.40;82.20
33827;DHT22;20128;45.582;5.298;2023-04-16T09:06:16;10.40;82.80
33827;DHT22;20128;45.582;5.298;2023-04-16T09:08:45;10.40;82.30
33827;DHT22;20128;45.582;5.298;2023-04-16T09:11:12;10.40;82.00
33827;DHT22;20128;45.582;5.298;2023-04-16T09:13:38;10.50;82.40
33827;DHT22;20128;45.582;5.298;2023-04-16T09:16:06;10.40;82.20
33827;DHT22;20128;45.582;5.298;2023-04-16T09:18:33;10.40;82.20
33827;DHT22;20128;45.582;5.298;2023-04-16T09:20:59;10.40;82.80
33827;DHT22;20128;45.582;5.298;2023-04-16T09:23:25;10.50;82.20
33827;DHT22;20128;45.582;5.298;2023-04-16T09:25:50;10.50;81.80
33827;DHT22;20128;45.582;5.298;2023-04-16T09:28:43;10.50;82.20
33827;DHT22;20128;45.582;5.298;2023-04-16T09:31:13;10.50;82.00
33827;DHT22;20128;45.582;5.298;2023-04-16T09:33:40;10.50;82.00
33827;DHT22;20128;45.582;5.298;2023-04-16T09:36:08;10.60;82.50
33827;DHT22;20128;45.582;5.298;2023-04-16T09:38:51;10.60;82.50
33827;DHT22;20128;45.582;5.298;2023-04-16T09:41:18;10.70;82.30
33827;DHT22;20128;45.582;5.298;2023-04-16T09:43:59;10.80;82.10
33827;DHT22;20128;45.582;5.298;2023-04-16T09:46:34;10.70;81.30
33827;DHT22;20128;45.582;5.298;2023-04-16T09:49:14;10.80;81.80
33827;DHT22;20128;45.582;5.298;2023-04-16T09:51:40;10.70;82.00
33827;DHT22;20128;45.582;5.298;2023-04-16T09:54:07;10.70;81.70
33827;DHT22;20128;45.582;5.298;2023-04-16T09:56:38;10.70;81.60
33827;DHT22;20128;45.582;5.298;2023-04-16T09:59:04;10.80;81.00
33827;DHT22;20128;45.582;5.298;2023-04-16T10:01:29;10.80;80.90
33827;DHT22;20128;45.582;5.298;2023-04-16T10:03:55;10.90;81.20
33827;DHT22;20128;45.582;5.298;2023-04-16T10:06:23;10.90;81.00
33827;DHT22;20128;45.582;5.298;2023-04-16T10:08:53;11.00;81.00
33827;DHT22;20128;45.582;5.298;2023-04-16T10:11:21;11.10;80.60
33827;DHT22;20128;45.582;5.298;2023-04-16T10:13:47;11.10;80.50
33827;DHT22;20128;45.582;5.298;2023-04-16T10:16:13;11.10;80.00
33827;DHT22;20128;45.582;5.298;2023-04-16T10:18:41;11.10;79.90
33827;DHT22;20128;45.582;5.298;2023-04-16T10:21:08;11.10;79.40
33827;DHT22;20128;45.582;5.298;2023-04-16T10:23:37;11.10;79.70
33827;DHT22;20128;45.582;5.298;2023-04-16T10:26:04;11.20;79.00
33827;DHT22;20128;45.582;5.298;2023-04-16T10:28:31;11.10;79.30
33827;DHT22;20128;45.582;5.298;2023-04-16T10:31:04;11.10;79.00
33827;DHT22;20128;45.582;5.298;2023-04-16T10:33:33;11.10;79.60
33827;DHT22;20128;45.582;5.298;2023-04-16T10:36:23;11.10;78.40
33827;DHT22;20128;45.582;5.298;2023-04-16T10:38:50;11.10;77.60
33827;DHT22;20128;45.582;5.298;2023-04-16T10:41:19;11.10;78.50
33827;DHT22;20128;45.582;5.298;2023-04-16T10:43:47;11.10;78.30
33827;DHT22;20128;45.582;5.298;2023-04-16T10:46:29;11.20;78.80
33827;DHT22;20128;45.582;5.298;2023-04-16T10:48:59;11.20;79.20
33827;DHT22;20128;45.582;5.298;2023-04-16T10:51:33;11.20;78.50
33827;DHT22;20128;45.582;5.298;2023-04-16T10:56:33;11.40;78.90
33827;DHT22;20128;45.582;5.298;2023-04-16T10:58:59;11.40;78.30
33827;DHT22;20128;45.582;5.298;2023-04-16T11:01:32;11.40;78.40
33827;DHT22;20128;45.582;5.298;2023-04-16T11:10:02;11.40;77.60
33827;DHT22;20128;45.582;5.298;2023-04-16T11:12:56;11.30;77.10
33827;DHT22;20128;45.582;5.298;2023-04-16T11:15:21;11.30;77.60
33827;DHT22;20128;45.582;5.298;2023-04-16T11:17:50;11.30;77.10
33827;DHT22;20128;45.582;5.298;2023-04-16T11:20:22;11.30;77.10
33827;DHT22;20128;45.582;5.298;2023-04-16T11:22:50;11.10;77.40
33827;DHT22;20128;45.582;5.298;2023-04-16T11:25:19;11.20;77.80
33827;DHT22;20128;45.582;5.298;2023-04-16T11:27:45;11.20;77.50
33827;DHT22;20128;45.582;5.298;2023-04-16T11:30:11;11.30;77.70
33827;DHT22;20128;45.582;5.298;2023-04-16T11:32:38;11.30;77.40
33827;DHT22;20128;45.582;5.298;2023-04-16T11:35:18;11.30;77.50
33827;DHT22;20128;45.582;5.298;2023-04-16T11:37:44;11.40;77.20
33827;DHT22;20128;45.582;5.298;2023-04-16T11:40:10;11.40;77.00
33827;DHT22;20128;45.582;5.298;2023-04-16T11:42:36;11.40;77.30
33827;DHT22;20128;45.582;5.298;2023-04-16T11:45:05;11.50;76.90
33827;DHT22;20128;45.582;5.298;2023-04-16T11:47:45;11.50;76.80
33827;DHT22;20128;45.582;5.298;2023-04-16T11:50:25;11.50;77.50
33827;DHT22;20128;45.582;5.298;2023-04-16T11:52:53;11.50;76.60
33827;DHT22;20128;45.582;5.298;2023-04-16T11:55:19;11.50;77.00
33827;DHT22;20128;45.582;5.298;2023-04-16T11:57:45;11.50;77.20
33827;DHT22;20128;45.582;5.298;2023-04-16T12:00:12;11.40;77.20
33827;DHT22;20128;45.582;5.298;2023-04-16T12:02:52;11.40;77.20
33827;DHT22;20128;45.582;5.298;2023-04-16T12:05:38;11.40;77.50
33827;DHT22;20128;45.582;5.298;2023-04-16T12:08:08;11.40;78.20
33827;DHT22;20128;45.582;5.298;2023-04-16T12:10:35;11.40;78.20
33827;DHT22;20128;45.582;5.298;2023-04-16T12:13:12;11.40;78.10
33827;DHT22;20128;45.582;5.298;2023-04-16T12:15:47;11.40;77.70
33827;DHT22;20128;45.582;5.298;2023-04-16T12:18:14;11.40;77.80
33827;DHT22;20128;45.582;5.298;2023-04-16T12:20:41;11.30;77.70
33827;DHT22;20128;45.582;5.298;2023-04-16T12:23:08;11.30;78.10
33827;DHT22;20128;45.582;5.298;2023-04-16T12:25:34;11.30;77.50
33827;DHT22;20128;45.582;5.298;2023-04-16T12:27:59;11.30;77.90
33827;DHT22;20128;45.582;5.298;2023-04-16T12:30:26;11.30;78.00
33827;DHT22;20128;45.582;5.298;2023-04-16T12:33:15;11.30;78.10
33827;DHT22;20128;45.582;5.298;2023-04-16T12:35:41;11.40;78.20
33827;DHT22;20128;45.582;5.298;2023-04-16T12:38:08;11.40;77.60
33827;DHT22;20128;45.582;5.298;2023-04-16T12:40:34;11.30;77.20
33827;DHT22;20128;45.582;5.298;2023-04-16T12:43:00;11.30;77.60
33827;DHT22;20128;45.582;5.298;2023-04-16T12:45:27;11.30;77.70
33827;DHT22;20128;45.582;5.298;2023-04-16T12:47:52;11.30;77.50
33827;DHT22;20128;45.582;5.298;2023-04-16T12:50:18;11.30;77.90
33827;DHT22;20128;45.582;5.298;2023-04-16T12:52:44;11.20;77.70
33827;DHT22;20128;45.582;5.298;2023-04-16T12:55:10;11.30;78.10
33827;DHT22;20128;45.582;5.298;2023-04-16T12:57:36;11.30;77.90
33827;DHT22;20128;45.582;5.298;2023-04-16T13:00:02;11.30;77.80
33827;DHT22;20128;45.582;5.298;2023-04-16T13:02:30;11.30;78.00
33827;DHT22;20128;45.582;5.298;2023-04-16T13:04:56;11.30;78.30
33827;DHT22;20128;45.582;5.298;2023-04-16T13:07:22;11.40;78.40
33827;DHT22;20128;45.582;5.298;2023-04-16T13:09:49;11.40;78.00
33827;DHT22;20128;45.582;5.298;2023-04-16T13:12:15;11.40;78.00
33827;DHT22;20128;45.582;5.298;2023-04-16T13:14:40;11.40;77.50
33827;DHT22;20128;45.582;5.298;2023-04-16T13:17:06;11.40;77.70
33827;DHT22;20128;45.582;5.298;2023-04-16T13:19:32;11.40;77.60
33827;DHT22;20128;45.582;5.298;2023-04-16T13:21:57;11.40;77.90
33827;DHT22;20128;45.582;5.298;2023-04-16T13:24:23;11.40;78.10
33827;DHT22;20128;45.582;5.298;2023-04-16T13:26:50;11.40;78.10
33827;DHT22;20128;45.582;5.298;2023-04-16T13:29:19;11.40;78.30
33827;DHT22;20128;45.582;5.298;2023-04-16T13:31:45;11.40;78.20
33827;DHT22;20128;45.582;5.298;2023-04-16T13:34:11;11.40;78.30
33827;DHT22;20128;45.582;5.298;2023-04-16T13:36:37;11.40;78.10
33827;DHT22;20128;45.582;5.298;2023-04-16T13:39:02;11.40;78.40
33827;DHT22;20128;45.582;5.298;2023-04-16T13:41:38;11.50;78.40
33827;DHT22;20128;45.582;5.298;2023-04-16T13:44:05;11.50;78.30
33827;DHT22;20128;45.582;5.298;2023-04-16T13:46:30;11.40;78.40
33827;DHT22;20128;45.582;5.298;2023-04-16T13:48:56;11.40;78.50
33827;DHT22;20128;45.582;5.298;2023-04-16T13:51:22;11.40;78.60
33827;DHT22;20128;45.582;5.298;2023-04-16T13:53:47;11.40;78.40
33827;DHT22;20128;45.582;5.298;2023-04-16T13:56:13;11.40;78.60
33827;DHT22;20128;45.582;5.298;2023-04-16T13:58:39;11.40;78.60
33827;DHT22;20128;45.582;5.298;2023-04-16T14:01:06;11.40;78.70
33827;DHT22;20128;45.582;5.298;2023-04-16T14:03:31;11.40;78.80
33827;DHT22;20128;45.582;5.298;2023-04-16T14:06:01;11.40;78.70
33827;DHT22;20128;45.582;5.298;2023-04-16T14:08:26;11.40;78.60
33827;DHT22;20128;45.582;5.298;2023-04-16T14:10:52;11.40;78.80
33827;DHT22;20128;45.582;5.298;2023-04-16T14:13:18;11.50;78.90
33827;DHT22;20128;45.582;5.298;2023-04-16T14:15:43;11.40;78.80
33827;DHT22;20128;45.582;5.298;2023-04-16T14:18:09;11.40;78.80
33827;DHT22;20128;45.582;5.298;2023-04-16T14:20:34;11.40;78.80
33827;DHT22;20128;45.582;5.298;2023-04-16T14:23:00;11.30;79.00
33827;DHT22;20128;45.582;5.298;2023-04-16T14:25:26;11.30;79.10
33827;DHT22;20128;45.582;5.298;2023-04-16T14:27:52;11.30;79.30
33827;DHT22;20128;45.582;5.298;2023-04-16T14:30:18;11.40;79.30
33827;DHT22;20128;45.582;5.298;2023-04-16T14:32:43;11.30;78.70
33827;DHT22;20128;45.582;5.298;2023-04-16T14:35:09;11.30;79.00
33827;DHT22;20128;45.582;5.298;2023-04-16T14:37:35;11.30;79.20
33827;DHT22;20128;45.582;5.298;2023-04-16T14:40:01;11.30;79.50
33827;DHT22;20128;45.582;5.298;2023-04-16T14:42:30;11.30;79.50
33827;DHT22;20128;45.582;5.298;2023-04-16T14:44:55;11.40;79.70
33827;DHT22;20128;45.582;5.298;2023-04-16T14:47:21;11.30;79.30
33827;DHT22;20128;45.582;5.298;2023-04-16T14:49:47;11.30;79.20
33827;DHT22;20128;45.582;5.298;2023-04-16T14:52:12;11.40;79.50
33827;DHT22;20128;45.582;5.298;2023-04-16T14:54:38;11.40;79.70
33827;DHT22;20128;45.582;5.298;2023-04-16T14:57:04;11.40;79.50
33827;DHT22;20128;45.582;5.298;2023-04-16T14:59:29;11.30;79.90
33827;DHT22;20128;45.582;5.298;2023-04-16T15:01:56;11.30;79.80
33827;DHT22;20128;45.582;5.298;2023-04-16T15:04:23;11.30;79.80
33827;DHT22;20128;45.582;5.298;2023-04-16T15:06:48;11.30;80.30
33827;DHT22;20128;45.582;5.298;2023-04-16T15:09:14;11.30;80.40
33827;DHT22;20128;45.582;5.298;2023-04-16T15:11:40;11.30;80.30
33827;DHT22;20128;45.582;5.298;2023-04-16T15:14:06;11.30;80.40
33827;DHT22;20128;45.582;5.298;2023-04-16T15:16:31;11.20;80.60
33827;DHT22;20128;45.582;5.298;2023-04-16T15:18:57;11.20;80.50
33827;DHT22;20128;45.582;5.298;2023-04-16T15:21:24;11.20;80.70
33827;DHT22;20128;45.582;5.298;2023-04-16T15:23:51;11.10;80.80
33827;DHT22;20128;45.582;5.298;2023-04-16T15:26:17;11.20;81.00
33827;DHT22;20128;45.582;5.298;2023-04-16T15:28:42;11.10;80.70
33827;DHT22;20128;45.582;5.298;2023-04-16T15:31:08;11.20;81.10
33827;DHT22;20128;45.582;5.298;2023-04-16T15:33:34;11.20;81.20
33827;DHT22;20128;45.582;5.298;2023-04-16T15:35:59;11.20;81.00
33827;DHT22;20128;45.582;5.298;2023-04-16T15:38:25;11.10;81.20